KXBP

Details ICAO KXBP
Name BRIDGEPORT MUNI
Region United States
Timezone America/Chicago (UTC-6.0)
Plans Departing 3
Arriving 3
Stats Elevation 852 ft / 260 m (AMSL)
Location 33.175336° -97.828395°
Runways 1
Magnetic Variation 3.908° E
Sunrise 2017-12-11 13:26:12 UTC / 2017-12-11 07:26:12 Local
Sunset 2017-12-11 23:26:05 UTC / 2017-12-11 17:26:05 Local
Advertisement - Login to hide

Runways

ID Width Length Bearing (true) Bearing (mag) Surface Threshold Offset Overrun Length
17 60 ft / 18 m 4,015 ft / 1,224 m 181.20° 177.29° Asphalt 0 ft / 0 m 0 ft / 0 m
35 60 ft / 18 m 4,015 ft / 1,224 m 1.20° 357.29° Asphalt 0 ft / 0 m 0 ft / 0 m

Map

Weather


0- 5 10 15 20 25 30 35+ Temperature / ° C

Clouds and Precipitation
Forecast for 2017-12-12 00:00 UTC. Updated 2 hours ago

Ground ~20,000 ft ~40,000 ft Winds

METAR

KXBP 112055Z AUTO 24008G15KT 10SM CLR 25/M06 A3013 RMK AO2 T02451065

TAF

Not found

Frequencies

Recorded 119.22 MHz AWOS 3
Unicom 123.00 MHz CTAF/UNICOM
Warning: Do not use this data for real-world aviation or navigation. No guarantee of current accuracy is given.